PWSweather.com
Personal Weather Stations
Station Observations
RTINEZ
TerrassaES 08226

TerrassaES 08226

Lat: 41.5762194, Lon: 2.028993700000001

Elevation: 367

Station Type: Watson W8681

www.rtinez.cat

High Low Average
Temperature 84.2°F29.0°C 69.6°F20.9°C 75.6°F24.2°C
Dew Point 58.0°F14.4°C 40.7°F4.8°C 48.1°F8.9°C
Winds 13.0 mph 20.9 kmh Calm Calm 6.0 mph E9.7 kmh E
Wind Gusts 22.1 mph35.6 kmh 1.6 mph2.6 kmh 12.0 mph19.3 kmh
Humidity 53% 22% 39%
Pressure 30.22 in1023.4 mb 30.12 in1020.0 mb -
Precipitation 0.00 in0.0 mm - -
Hour Temp Dew Point Humidity Winds Wind Gusts Pressure Precip Precip Rate Daily Precip Total
12:00 AM 72.3°F22.4°C 46.0°F7.8°C 39% 3.1 mph SSE5.0 kmh SSE 5.4 mph8.7 kmh 30.20 in1022.7 mb 0.00 in0.0 mm 0.00 in0.0 mm 0.00 in0.0 mm
12:15 AM 69.6°F20.9°C 51.8°F11.0°C 53% 6.0 mph S9.7 kmh S 9.8 mph15.8 kmh 30.21 in1023.0 mb 0.00 in0.0 mm 0.00 in0.0 mm 0.00 in0.0 mm
12:30 AM 69.6°F20.9°C 51.2°F10.7°C 52% 1.6 mph SSE2.6 kmh SSE 7.6 mph12.2 kmh 30.22 in1023.4 mb 0.00 in0.0 mm 0.00 in0.0 mm 0.00 in0.0 mm
12:45 AM 70.0°F21.1°C 50.5°F10.3°C 50% 1.6 mph ENE2.6 kmh ENE 6.9 mph11.1 kmh 30.22 in1023.4 mb 0.00 in0.0 mm 0.00 in0.0 mm 0.00 in0.0 mm
01:00 AM 70.0°F21.1°C 50.5°F10.3°C 50% 5.4 mph NE8.7 kmh NE 7.6 mph12.2 kmh 30.22 in1023.4 mb 0.00 in0.0 mm 0.00 in0.0 mm 0.00 in0.0 mm
01:15 AM 70.0°F21.1°C 50.0°F10.0°C 49% 3.8 mph NE6.1 kmh NE 8.3 mph13.4 kmh 30.22 in1023.4 mb 0.00 in0.0 mm 0.00 in0.0 mm 0.00 in0.0 mm
01:30 AM 70.2°F21.2°C 50.1°F10.1°C 49% 4.5 mph NE7.2 kmh NE 8.3 mph13.4 kmh 30.21 in1023.0 mb 0.00 in0.0 mm 0.00 in0.0 mm 0.00 in0.0 mm
01:45 AM 70.5°F21.4°C 50.5°F10.3°C 49% 5.4 mph NE8.7 kmh NE 10.7 mph17.2 kmh 30.21 in1023.0 mb 0.00 in0.0 mm 0.00 in0.0 mm 0.00 in0.0 mm
02:00 AM 71.2°F21.8°C 48.8°F9.3°C 45% 6.0 mph ENE9.7 kmh ENE 12.1 mph19.5 kmh 30.21 in1023.0 mb 0.00 in0.0 mm 0.00 in0.0 mm 0.00 in0.0 mm
02:15 AM 71.2°F21.8°C 48.2°F9.0°C 44% 6.9 mph ENE11.1 kmh ENE 13.6 mph21.9 kmh 30.20 in1022.7 mb 0.00 in0.0 mm 0.00 in0.0 mm 0.00 in0.0 mm
02:30 AM 71.6°F22.0°C 46.7°F8.2°C 41% 5.4 mph NE8.7 kmh NE 14.5 mph23.3 kmh 30.20 in1022.7 mb 0.00 in0.0 mm 0.00 in0.0 mm 0.00 in0.0 mm
02:45 AM 72.0°F22.2°C 47.0°F8.3°C 41% 6.0 mph NNE9.7 kmh NNE 16.8 mph27.0 kmh 30.20 in1022.7 mb 0.00 in0.0 mm 0.00 in0.0 mm 0.00 in0.0 mm
03:00 AM 71.6°F22.0°C 46.0°F7.8°C 40% 4.5 mph NE7.2 kmh NE 13.0 mph20.9 kmh 30.19 in1022.4 mb 0.00 in0.0 mm 0.00 in0.0 mm 0.00 in0.0 mm
03:15 AM 72.1°F22.3°C 44.5°F6.9°C 37% 3.1 mph NE5.0 kmh NE 10.7 mph17.2 kmh 30.17 in1021.7 mb 0.00 in0.0 mm 0.00 in0.0 mm 0.00 in0.0 mm
03:30 AM 72.5°F22.5°C 42.6°F5.9°C 34% Calm Calm 7.6 mph12.2 kmh 30.17 in1021.7 mb 0.00 in0.0 mm 0.00 in0.0 mm 0.00 in0.0 mm
03:45 AM 72.1°F22.3°C 43.0°F6.1°C 35% 1.6 mph NW2.6 kmh NW 3.1 mph5.0 kmh 30.18 in1022.0 mb 0.00 in0.0 mm 0.00 in0.0 mm 0.00 in0.0 mm
04:00 AM 71.6°F22.0°C 45.4°F7.4°C 39% 3.8 mph WSW6.1 kmh WSW 5.4 mph8.7 kmh 30.19 in1022.4 mb 0.00 in0.0 mm 0.00 in0.0 mm 0.00 in0.0 mm
04:15 AM 70.7°F21.5°C 44.6°F7.0°C 39% 0.7 mph N1.1 kmh N 2.2 mph3.5 kmh 30.18 in1022.0 mb 0.00 in0.0 mm 0.00 in0.0 mm 0.00 in0.0 mm
04:30 AM 70.0°F21.1°C 45.9°F7.7°C 42% Calm Calm 1.6 mph2.6 kmh 30.18 in1022.0 mb 0.00 in0.0 mm 0.00 in0.0 mm 0.00 in0.0 mm
04:45 AM 69.8°F21.0°C 44.4°F6.9°C 40% 4.5 mph N7.2 kmh N 6.0 mph9.7 kmh 30.15 in1021.0 mb 0.00 in0.0 mm 0.00 in0.0 mm 0.00 in0.0 mm
05:00 AM 72.0°F22.2°C 42.1°F5.6°C 34% 4.5 mph N7.2 kmh N 7.6 mph12.2 kmh 30.15 in1021.0 mb 0.00 in0.0 mm 0.00 in0.0 mm 0.00 in0.0 mm
05:15 AM 71.4°F21.9°C 43.1°F6.2°C 36% 0.7 mph NE1.1 kmh NE 6.0 mph9.7 kmh 30.16 in1021.3 mb 0.00 in0.0 mm 0.00 in0.0 mm 0.00 in0.0 mm
05:30 AM 71.1°F21.7°C 42.8°F6.0°C 36% 2.2 mph NE3.5 kmh NE 3.8 mph6.1 kmh 30.15 in1021.0 mb 0.00 in0.0 mm 0.00 in0.0 mm 0.00 in0.0 mm
05:45 AM 71.2°F21.8°C 42.9°F6.1°C 36% 0.7 mph NNE1.1 kmh NNE 5.4 mph8.7 kmh 30.16 in1021.3 mb 0.00 in0.0 mm 0.00 in0.0 mm 0.00 in0.0 mm
06:00 AM 70.5°F21.4°C 43.0°F6.1°C 37% Calm Calm 1.6 mph2.6 kmh 30.16 in1021.3 mb 0.00 in0.0 mm 0.00 in0.0 mm 0.00 in0.0 mm
06:15 AM 70.0°F21.1°C 43.9°F6.6°C 39% 1.6 mph W2.6 kmh W 3.8 mph6.1 kmh 30.17 in1021.7 mb 0.00 in0.0 mm 0.00 in0.0 mm 0.00 in0.0 mm
06:30 AM 70.0°F21.1°C 43.2°F6.2°C 38% 2.2 mph NW3.5 kmh NW 3.8 mph6.1 kmh 30.17 in1021.7 mb 0.00 in0.0 mm 0.00 in0.0 mm 0.00 in0.0 mm
06:45 AM 70.3°F21.3°C 42.9°F6.1°C 37% 3.8 mph NNW6.1 kmh NNW 5.4 mph8.7 kmh 30.17 in1021.7 mb 0.00 in0.0 mm 0.00 in0.0 mm 0.00 in0.0 mm
07:00 AM 70.9°F21.6°C 44.7°F7.1°C 39% 6.9 mph ENE11.1 kmh ENE 10.7 mph17.2 kmh 30.17 in1021.7 mb 0.00 in0.0 mm 0.00 in0.0 mm 0.00 in0.0 mm
07:15 AM 71.2°F21.8°C 45.0°F7.2°C 39% 3.8 mph E6.1 kmh E 9.8 mph15.8 kmh 30.16 in1021.3 mb 0.00 in0.0 mm 0.00 in0.0 mm 0.00 in0.0 mm
07:30 AM 71.6°F22.0°C 44.7°F7.1°C 38% 5.4 mph ENE8.7 kmh ENE 12.1 mph19.5 kmh 30.17 in1021.7 mb 0.00 in0.0 mm 0.00 in0.0 mm 0.00 in0.0 mm
07:45 AM 72.7°F22.6°C 44.9°F7.2°C 37% 2.2 mph E3.5 kmh E 9.8 mph15.8 kmh 30.17 in1021.7 mb 0.00 in0.0 mm 0.00 in0.0 mm 0.00 in0.0 mm
08:00 AM 73.9°F23.3°C 44.6°F7.0°C 35% 0.7 mph ESE1.1 kmh ESE 9.8 mph15.8 kmh 30.18 in1022.0 mb 0.00 in0.0 mm 0.00 in0.0 mm 0.00 in0.0 mm
08:15 AM 74.7°F23.7°C 45.2°F7.3°C 35% 3.8 mph SE6.1 kmh SE 9.2 mph14.8 kmh 30.18 in1022.0 mb 0.00 in0.0 mm 0.00 in0.0 mm 0.00 in0.0 mm
08:30 AM 74.7°F23.7°C 45.2°F7.3°C 35% 6.9 mph ESE11.1 kmh ESE 15.2 mph24.5 kmh 30.19 in1022.4 mb 0.00 in0.0 mm 0.00 in0.0 mm 0.00 in0.0 mm
08:45 AM 74.1°F23.4°C 46.9°F8.3°C 38% 9.8 mph ESE15.8 kmh ESE 19.0 mph30.6 kmh 30.19 in1022.4 mb 0.00 in0.0 mm 0.00 in0.0 mm 0.00 in0.0 mm
09:00 AM 75.0°F23.9°C 47.7°F8.7°C 38% 7.6 mph ESE12.2 kmh ESE 18.3 mph29.5 kmh 30.18 in1022.0 mb 0.00 in0.0 mm 0.00 in0.0 mm 0.00 in0.0 mm
09:15 AM 77.2°F25.1°C 48.2°F9.0°C 36% 2.2 mph E3.5 kmh E 13.6 mph21.9 kmh 30.18 in1022.0 mb 0.00 in0.0 mm 0.00 in0.0 mm 0.00 in0.0 mm
09:30 AM 77.2°F25.1°C 47.4°F8.6°C 35% 8.3 mph SE13.4 kmh SE 19.7 mph31.7 kmh 30.19 in1022.4 mb 0.00 in0.0 mm 0.00 in0.0 mm 0.00 in0.0 mm
09:45 AM 77.2°F25.1°C 48.9°F9.4°C 37% 9.8 mph SE15.8 kmh SE 13.6 mph21.9 kmh 30.20 in1022.7 mb 0.00 in0.0 mm 0.00 in0.0 mm 0.00 in0.0 mm
10:00 AM 75.0°F23.9°C 49.1°F9.5°C 40% 11.4 mph ESE18.3 kmh ESE 22.1 mph35.6 kmh 30.20 in1022.7 mb 0.00 in0.0 mm 0.00 in0.0 mm 0.00 in0.0 mm
10:15 AM 77.2°F25.1°C 48.2°F9.0°C 36% 5.4 mph SE8.7 kmh SE 20.6 mph33.2 kmh 30.19 in1022.4 mb 0.00 in0.0 mm 0.00 in0.0 mm 0.00 in0.0 mm
10:30 AM 77.2°F25.1°C 47.4°F8.6°C 35% 7.6 mph SE12.2 kmh SE 15.9 mph25.6 kmh 30.20 in1022.7 mb 0.00 in0.0 mm 0.00 in0.0 mm 0.00 in0.0 mm
10:45 AM 78.6°F25.9°C 47.1°F8.4°C 33% 12.1 mph E19.5 kmh E 17.4 mph28.0 kmh 30.19 in1022.4 mb 0.00 in0.0 mm 0.00 in0.0 mm 0.00 in0.0 mm
11:00 AM 79.2°F26.2°C 46.0°F7.8°C 31% 9.2 mph SE14.8 kmh SE 19.0 mph30.6 kmh 30.19 in1022.4 mb 0.00 in0.0 mm 0.00 in0.0 mm 0.00 in0.0 mm
11:15 AM 80.4°F26.9°C 47.9°F8.8°C 32% 3.8 mph NE6.1 kmh NE 16.8 mph27.0 kmh 30.18 in1022.0 mb 0.00 in0.0 mm 0.00 in0.0 mm 0.00 in0.0 mm
11:30 AM 81.3°F27.4°C 46.1°F7.8°C 29% 7.6 mph E12.2 kmh E 18.3 mph29.5 kmh 30.19 in1022.4 mb 0.00 in0.0 mm 0.00 in0.0 mm 0.00 in0.0 mm
11:45 AM 81.9°F27.7°C 46.5°F8.1°C 29% 4.5 mph E7.2 kmh E 16.8 mph27.0 kmh 30.18 in1022.0 mb 0.00 in0.0 mm 0.00 in0.0 mm 0.00 in0.0 mm
12:00 PM 81.3°F27.4°C 46.1°F7.8°C 29% 6.9 mph SE11.1 kmh SE 18.3 mph29.5 kmh 30.18 in1022.0 mb 0.00 in0.0 mm 0.00 in0.0 mm 0.00 in0.0 mm
12:15 PM 82.6°F28.1°C 48.9°F9.4°C 31% 10.7 mph E17.2 kmh E 15.9 mph25.6 kmh 30.18 in1022.0 mb 0.00 in0.0 mm 0.00 in0.0 mm 0.00 in0.0 mm
12:30 PM 82.2°F27.9°C 47.7°F8.7°C 30% 7.6 mph E12.2 kmh E 17.4 mph28.0 kmh 30.17 in1021.7 mb 0.00 in0.0 mm 0.00 in0.0 mm 0.00 in0.0 mm
12:45 PM 82.6°F28.1°C 49.8°F9.9°C 32% 8.3 mph SE13.4 kmh SE 15.2 mph24.5 kmh 30.18 in1022.0 mb 0.00 in0.0 mm 0.00 in0.0 mm 0.00 in0.0 mm
01:00 PM 82.8°F28.2°C 49.9°F9.9°C 32% 10.7 mph ESE17.2 kmh ESE 15.2 mph24.5 kmh 30.18 in1022.0 mb 0.00 in0.0 mm 0.00 in0.0 mm 0.00 in0.0 mm
01:15 PM 83.8°F28.8°C 48.2°F9.0°C 29% 6.9 mph E11.1 kmh E 17.4 mph28.0 kmh 30.17 in1021.7 mb 0.00 in0.0 mm 0.00 in0.0 mm 0.00 in0.0 mm
01:30 PM 83.3°F28.5°C 46.8°F8.2°C 28% 6.9 mph SE11.1 kmh SE 14.5 mph23.3 kmh 30.17 in1021.7 mb 0.00 in0.0 mm 0.00 in0.0 mm 0.00 in0.0 mm
01:45 PM 83.3°F28.5°C 50.4°F10.2°C 32% 7.6 mph ESE12.2 kmh ESE 14.5 mph23.3 kmh 30.16 in1021.3 mb 0.00 in0.0 mm 0.00 in0.0 mm 0.00 in0.0 mm
02:00 PM 84.0°F28.9°C 45.5°F7.5°C 26% 12.1 mph ESE19.5 kmh ESE 15.9 mph25.6 kmh 30.16 in1021.3 mb 0.00 in0.0 mm 0.00 in0.0 mm 0.00 in0.0 mm
02:15 PM 83.7°F28.7°C 42.0°F5.6°C 23% 6.0 mph ESE9.7 kmh ESE 19.0 mph30.6 kmh 30.15 in1021.0 mb 0.00 in0.0 mm 0.00 in0.0 mm 0.00 in0.0 mm
02:30 PM 83.5°F28.6°C 51.4°F10.8°C 33% 11.4 mph ESE18.3 kmh ESE 18.3 mph29.5 kmh 30.14 in1020.7 mb 0.00 in0.0 mm 0.00 in0.0 mm 0.00 in0.0 mm
02:45 PM 83.8°F28.8°C 45.3°F7.4°C 26% 9.2 mph SE14.8 kmh SE 15.9 mph25.6 kmh 30.14 in1020.7 mb 0.00 in0.0 mm 0.00 in0.0 mm 0.00 in0.0 mm
03:00 PM 84.2°F29.0°C 44.6°F7.0°C 25% 9.8 mph E15.8 kmh E 17.4 mph28.0 kmh 30.14 in1020.7 mb 0.00 in0.0 mm 0.00 in0.0 mm 0.00 in0.0 mm
03:15 PM 83.3°F28.5°C 50.4°F10.2°C 32% 6.9 mph ESE11.1 kmh ESE 15.9 mph25.6 kmh 30.14 in1020.7 mb 0.00 in0.0 mm 0.00 in0.0 mm 0.00 in0.0 mm
03:30 PM 83.1°F28.4°C 46.7°F8.2°C 28% 13.0 mph SE20.9 kmh SE 19.0 mph30.6 kmh 30.14 in1020.7 mb 0.00 in0.0 mm 0.00 in0.0 mm 0.00 in0.0 mm
03:45 PM 83.5°F28.6°C 40.7°F4.8°C 22% 11.4 mph SE18.3 kmh SE 17.4 mph28.0 kmh 30.14 in1020.7 mb 0.00 in0.0 mm 0.00 in0.0 mm 0.00 in0.0 mm
04:00 PM 83.3°F28.5°C 42.8°F6.0°C 24% 11.4 mph SE18.3 kmh SE 19.0 mph30.6 kmh 30.13 in1020.3 mb 0.00 in0.0 mm 0.00 in0.0 mm 0.00 in0.0 mm
04:15 PM 83.1°F28.4°C 53.4°F11.9°C 36% 7.6 mph SE12.2 kmh SE 15.9 mph25.6 kmh 30.14 in1020.7 mb 0.00 in0.0 mm 0.00 in0.0 mm 0.00 in0.0 mm
04:30 PM 81.9°F27.7°C 56.6°F13.7°C 42% 9.2 mph SE14.8 kmh SE 15.2 mph24.5 kmh 30.13 in1020.3 mb 0.00 in0.0 mm 0.00 in0.0 mm 0.00 in0.0 mm
04:45 PM 81.3°F27.4°C 58.0°F14.4°C 45% 9.2 mph ESE14.8 kmh ESE 15.9 mph25.6 kmh 30.14 in1020.7 mb 0.00 in0.0 mm 0.00 in0.0 mm 0.00 in0.0 mm
05:00 PM 80.8°F27.1°C 54.9°F12.7°C 41% 10.7 mph ESE17.2 kmh ESE 15.2 mph24.5 kmh 30.14 in1020.7 mb 0.00 in0.0 mm 0.00 in0.0 mm 0.00 in0.0 mm
05:15 PM 80.4°F26.9°C 55.9°F13.3°C 43% 9.2 mph E14.8 kmh E 15.9 mph25.6 kmh 30.13 in1020.3 mb 0.00 in0.0 mm 0.00 in0.0 mm 0.00 in0.0 mm
05:30 PM 79.3°F26.3°C 56.8°F13.8°C 46% 8.3 mph ESE13.4 kmh ESE 15.2 mph24.5 kmh 30.14 in1020.7 mb 0.00 in0.0 mm 0.00 in0.0 mm 0.00 in0.0 mm
05:45 PM 79.5°F26.4°C 56.4°F13.6°C 45% 6.9 mph SE11.1 kmh SE 14.5 mph23.3 kmh 30.12 in1020.0 mb 0.00 in0.0 mm 0.00 in0.0 mm 0.00 in0.0 mm
06:00 PM 77.2°F25.1°C 56.0°F13.3°C 48% 9.2 mph ESE14.8 kmh ESE 14.5 mph23.3 kmh 30.13 in1020.3 mb 0.00 in0.0 mm 0.00 in0.0 mm 0.00 in0.0 mm
06:15 PM 77.2°F25.1°C 56.6°F13.7°C 49% 7.6 mph SE12.2 kmh SE 14.5 mph23.3 kmh 30.13 in1020.3 mb 0.00 in0.0 mm 0.00 in0.0 mm 0.00 in0.0 mm
06:30 PM 77.0°F25.0°C 57.0°F13.9°C 50% 4.5 mph E7.2 kmh E 9.8 mph15.8 kmh 30.13 in1020.3 mb 0.00 in0.0 mm 0.00 in0.0 mm 0.00 in0.0 mm
06:45 PM 76.5°F24.7°C 57.0°F13.9°C 51% 4.5 mph SE7.2 kmh SE 10.7 mph17.2 kmh 30.13 in1020.3 mb 0.00 in0.0 mm 0.00 in0.0 mm 0.00 in0.0 mm
07:00 PM 75.9°F24.4°C 56.5°F13.6°C 51% 2.2 mph E3.5 kmh E 8.3 mph13.4 kmh 30.13 in1020.3 mb 0.00 in0.0 mm 0.00 in0.0 mm 0.00 in0.0 mm
07:15 PM 75.0°F23.9°C 56.8°F13.8°C 53% 6.0 mph ENE9.7 kmh ENE 10.7 mph17.2 kmh 30.13 in1020.3 mb 0.00 in0.0 mm 0.00 in0.0 mm 0.00 in0.0 mm
07:30 PM 73.0°F22.8°C 53.3°F11.8°C 50% 6.0 mph E9.7 kmh E 12.1 mph19.5 kmh 30.13 in1020.3 mb 0.00 in0.0 mm 0.00 in0.0 mm 0.00 in0.0 mm
07:45 PM 72.9°F22.7°C 53.2°F11.8°C 50% 1.6 mph NE2.6 kmh NE 10.7 mph17.2 kmh 30.13 in1020.3 mb 0.00 in0.0 mm 0.00 in0.0 mm 0.00 in0.0 mm
08:00 PM 72.7°F22.6°C 53.0°F11.7°C 50% 6.0 mph NE9.7 kmh NE 9.8 mph15.8 kmh 30.14 in1020.7 mb 0.00 in0.0 mm 0.00 in0.0 mm 0.00 in0.0 mm
08:15 PM 72.5°F22.5°C 52.3°F11.3°C 49% 5.4 mph E8.7 kmh E 11.4 mph18.3 kmh 30.14 in1020.7 mb 0.00 in0.0 mm 0.00 in0.0 mm 0.00 in0.0 mm
08:30 PM 72.3°F22.4°C 52.1°F11.2°C 49% 3.1 mph NE5.0 kmh NE 9.2 mph14.8 kmh 30.14 in1020.7 mb 0.00 in0.0 mm 0.00 in0.0 mm 0.00 in0.0 mm
08:45 PM 72.1°F22.3°C 52.0°F11.1°C 49% 5.4 mph NNE8.7 kmh NNE 6.0 mph9.7 kmh 30.15 in1021.0 mb 0.00 in0.0 mm 0.00 in0.0 mm 0.00 in0.0 mm
09:00 PM 72.7°F22.6°C 51.9°F11.1°C 48% 4.5 mph NNE7.2 kmh NNE 6.9 mph11.1 kmh 30.15 in1021.0 mb 0.00 in0.0 mm 0.00 in0.0 mm 0.00 in0.0 mm
09:15 PM 73.0°F22.8°C 50.5°F10.3°C 45% 5.4 mph NE8.7 kmh NE 9.2 mph14.8 kmh 30.14 in1020.7 mb 0.00 in0.0 mm 0.00 in0.0 mm 0.00 in0.0 mm
09:30 PM 73.4°F23.0°C 48.3°F9.1°C 41% 5.4 mph NNE8.7 kmh NNE 10.7 mph17.2 kmh 30.14 in1020.7 mb 0.00 in0.0 mm 0.00 in0.0 mm 0.00 in0.0 mm
09:45 PM 73.6°F23.1°C 46.4°F8.0°C 38% 3.1 mph NNE5.0 kmh NNE 10.7 mph17.2 kmh 30.14 in1020.7 mb 0.00 in0.0 mm 0.00 in0.0 mm 0.00 in0.0 mm
10:00 PM 73.9°F23.3°C 45.3°F7.4°C 36% 5.4 mph NE8.7 kmh NE 7.6 mph12.2 kmh 30.14 in1020.7 mb 0.00 in0.0 mm 0.00 in0.0 mm 0.00 in0.0 mm
10:15 PM 73.6°F23.1°C 45.0°F7.2°C 36% 4.5 mph NNE7.2 kmh NNE 6.9 mph11.1 kmh 30.14 in1020.7 mb 0.00 in0.0 mm 0.00 in0.0 mm 0.00 in0.0 mm
10:30 PM 73.9°F23.3°C 44.6°F7.0°C 35% 2.2 mph NE3.5 kmh NE 7.6 mph12.2 kmh 30.13 in1020.3 mb 0.00 in0.0 mm 0.00 in0.0 mm 0.00 in0.0 mm
10:45 PM 73.6°F23.1°C 44.3°F6.8°C 35% 3.1 mph NE5.0 kmh NE 6.9 mph11.1 kmh 30.13 in1020.3 mb 0.00 in0.0 mm 0.00 in0.0 mm 0.00 in0.0 mm
11:00 PM 73.4°F23.0°C 44.1°F6.7°C 35% 3.8 mph NE6.1 kmh NE 6.9 mph11.1 kmh 30.14 in1020.7 mb 0.00 in0.0 mm 0.00 in0.0 mm 0.00 in0.0 mm
11:15 PM 73.6°F23.1°C 44.3°F6.8°C 35% 1.6 mph E2.6 kmh E 5.4 mph8.7 kmh 30.14 in1020.7 mb 0.00 in0.0 mm 0.00 in0.0 mm 0.00 in0.0 mm
11:30 PM 72.7°F22.6°C 44.2°F6.8°C 36% 3.1 mph NNE5.0 kmh NNE 4.5 mph7.2 kmh 30.14 in1020.7 mb 0.00 in0.0 mm 0.00 in0.0 mm 0.00 in0.0 mm
11:45 PM 72.1°F22.3°C 43.7°F6.5°C 36% 3.8 mph N6.1 kmh N 6.0 mph9.7 kmh 30.13 in1020.3 mb 0.00 in0.0 mm 0.00 in0.0 mm 0.00 in0.0 mm